createdAt,value
2022-11-22T00:01:00.747Z,99937.46
2022-11-22T00:03:28.623Z,99935.64
2022-11-22T00:05:56.809Z,99943.92
2022-11-22T00:08:24.785Z,99943.37
2022-11-22T00:10:52.590Z,99943.10
2022-11-22T00:13:21.339Z,99941.21
2022-11-22T00:16:04.130Z,99937.72
2022-11-22T00:18:32.024Z,99932.46
2022-11-22T00:21:08.145Z,99929.19
2022-11-22T00:23:36.068Z,99924.48
2022-11-22T00:26:04.097Z,99913.61
2022-11-22T00:28:31.995Z,99911.11
2022-11-22T00:30:59.789Z,99912.13
2022-11-22T00:33:27.599Z,99899.34
2022-11-22T00:35:55.421Z,99894.38
2022-11-22T00:38:23.334Z,99892.66
2022-11-22T00:40:51.172Z,99880.78
2022-11-22T00:43:18.998Z,99882.38
2022-11-22T00:45:46.808Z,99879.83
2022-11-22T00:48:14.646Z,99879.92
2022-11-22T00:50:42.902Z,99878.59
2022-11-22T00:53:10.767Z,99879.16
2022-11-22T00:55:38.624Z,99881.73
2022-11-22T00:58:06.505Z,99879.61
2022-11-22T01:00:34.604Z,99873.59
2022-11-22T01:03:02.604Z,99873.05
2022-11-22T01:05:30.450Z,99874.38
2022-11-22T01:07:58.385Z,99876.15
2022-11-22T01:10:26.208Z,99871.02
2022-11-22T01:12:54.091Z,99866.55
2022-11-22T01:15:22.057Z,99864.94
2022-11-22T01:17:50.004Z,99858.00
2022-11-22T01:20:17.947Z,99856.45
2022-11-22T01:22:45.897Z,99853.80
2022-11-22T01:25:13.764Z,99854.39
2022-11-22T01:27:41.621Z,99857.84
2022-11-22T01:30:09.853Z,99863.41
2022-11-22T01:32:37.658Z,99873.14
2022-11-22T01:35:05.896Z,99882.69
2022-11-22T01:37:33.751Z,99881.99
2022-11-22T01:40:01.618Z,99880.35
2022-11-22T01:42:45.835Z,99879.09
2022-11-22T01:45:32.268Z,99873.55
2022-11-22T01:48:12.469Z,99871.20
2022-11-22T01:50:44.122Z,99869.06
2022-11-22T01:53:41.916Z,99873.60
2022-11-22T01:56:14.538Z,99871.25
2022-11-22T01:58:46.149Z,99859.24
2022-11-22T02:01:14.069Z,99851.63
2022-11-22T02:03:48.274Z,99851.30
2022-11-22T02:06:18.524Z,99843.14
2022-11-22T02:08:59.698Z,99845.49
2022-11-22T02:11:33.783Z,99844.90
2022-11-22T02:14:03.700Z,99848.18
2022-11-22T02:16:32.013Z,99854.56
2022-11-22T02:18:59.849Z,99857.55
2022-11-22T02:21:29.029Z,99859.06
2022-11-22T02:24:16.644Z,99853.70
2022-11-22T02:26:44.523Z,99858.53
2022-11-22T02:29:13.198Z,99862.99
2022-11-22T02:31:45.302Z,99856.52
2022-11-22T02:34:14.161Z,99854.16
2022-11-22T02:36:47.305Z,99860.65
2022-11-22T02:39:20.437Z,99862.52
2022-11-22T02:41:49.733Z,99857.17
2022-11-22T02:44:19.361Z,99853.81
2022-11-22T02:46:55.379Z,99846.52
2022-11-22T02:49:25.229Z,99842.66
2022-11-22T02:51:53.769Z,99839.33
2022-11-22T02:54:22.095Z,99831.98
2022-11-22T02:56:50.165Z,99829.10
2022-11-22T02:59:18.245Z,99832.20
2022-11-22T03:01:48.367Z,99832.08
2022-11-22T03:04:25.182Z,99832.92
2022-11-22T03:06:55.966Z,99838.64
2022-11-22T03:09:25.496Z,99836.09
2022-11-22T03:11:54.621Z,99832.92
2022-11-22T03:14:23.117Z,99839.66
2022-11-22T03:16:51.688Z,99831.17
2022-11-22T03:19:19.605Z,99820.16
2022-11-22T03:21:47.823Z,99820.20
2022-11-22T03:24:15.833Z,99820.26
2022-11-22T03:26:49.118Z,99817.27
2022-11-22T03:29:17.772Z,99814.35
2022-11-22T03:31:45.622Z,99812.23
2022-11-22T03:34:13.665Z,99809.55
2022-11-22T03:36:41.486Z,99811.20
2022-11-22T03:39:09.442Z,99816.77
2022-11-22T03:41:37.348Z,99807.48
2022-11-22T03:44:05.339Z,99807.11
2022-11-22T03:46:33.416Z,99809.43
2022-11-22T03:49:01.273Z,99810.11
2022-11-22T03:51:29.083Z,99819.58
2022-11-22T03:53:57.831Z,99812.77
2022-11-22T03:56:25.746Z,99809.04
2022-11-22T03:58:53.765Z,99806.80
2022-11-22T04:01:21.687Z,99799.88
2022-11-22T04:03:49.642Z,99797.29
2022-11-22T04:06:18.092Z,99797.65
2022-11-22T04:08:46.023Z,99800.05
2022-11-22T04:11:13.865Z,99791.72
2022-11-22T04:14:00.536Z,99789.78
2022-11-22T04:16:28.382Z,99794.94
2022-11-22T04:18:56.315Z,99798.30
2022-11-22T04:21:36.430Z,99802.60
2022-11-22T04:24:26.162Z,99806.30
2022-11-22T04:26:54.377Z,99802.36
2022-11-22T04:29:22.840Z,99812.90
2022-11-22T04:32:10.598Z,99814.54
2022-11-22T04:34:38.517Z,99806.30
2022-11-22T04:37:07.102Z,99813.23
2022-11-22T04:39:35.223Z,99810.45
2022-11-22T04:42:22.059Z,99817.06
2022-11-22T04:44:50.203Z,99822.59
2022-11-22T04:47:37.623Z,99826.52
2022-11-22T04:50:28.338Z,99826.89
2022-11-22T04:52:57.708Z,99822.58
2022-11-22T04:55:25.979Z,99832.60
2022-11-22T04:57:59.182Z,99834.11
2022-11-22T05:00:31.705Z,99840.58
2022-11-22T05:02:59.863Z,99841.25
2022-11-22T05:05:28.191Z,99837.21
2022-11-22T05:07:58.476Z,99842.40
2022-11-22T05:10:27.236Z,99837.30
2022-11-22T05:12:56.149Z,99837.80
2022-11-22T05:15:24.137Z,99835.14
2022-11-22T05:17:52.085Z,99829.54
2022-11-22T05:20:19.971Z,99829.10
2022-11-22T05:23:06.700Z,99829.88
2022-11-22T05:25:34.540Z,99827.69
2022-11-22T05:28:02.345Z,99827.70
2022-11-22T05:30:30.176Z,99825.39
2022-11-22T05:32:58.029Z,99816.55
2022-11-22T05:35:26.005Z,99811.84
2022-11-22T05:37:57.029Z,99813.55
2022-11-22T05:40:25.842Z,99813.27
2022-11-22T05:42:53.999Z,99805.89
2022-11-22T05:45:21.922Z,99809.30
2022-11-22T05:47:49.733Z,99811.30
2022-11-22T05:50:17.588Z,99814.14
2022-11-22T05:52:55.313Z,99820.09
2022-11-22T05:55:23.129Z,99821.96
2022-11-22T05:57:50.917Z,99823.13
2022-11-22T06:00:19.153Z,99822.80
2022-11-22T06:02:47.154Z,99823.60
2022-11-22T06:05:15.175Z,99822.66
2022-11-22T06:07:43.213Z,99824.31
2022-11-22T06:10:12.149Z,99821.27
2022-11-22T06:12:40.065Z,99822.47
2022-11-22T06:15:08.804Z,99822.73
2022-11-22T06:17:36.746Z,99825.28
2022-11-22T06:20:06.633Z,99827.52
2022-11-22T06:22:35.045Z,99826.38
2022-11-22T06:25:02.979Z,99836.87
2022-11-22T06:27:30.886Z,99837.92
2022-11-22T06:29:58.688Z,99847.42
2022-11-22T06:32:26.528Z,99850.64
2022-11-22T06:34:54.479Z,99854.35
2022-11-22T06:37:22.449Z,99850.19
2022-11-22T06:39:50.348Z,99846.33
2022-11-22T06:42:18.389Z,99845.73
2022-11-22T06:44:46.265Z,99848.75
2022-11-22T06:47:14.078Z,99851.46
2022-11-22T06:49:41.900Z,99857.88
2022-11-22T06:52:09.859Z,99865.23
2022-11-22T06:54:38.042Z,99872.22
2022-11-22T06:57:05.900Z,99873.92
2022-11-22T06:59:34.825Z,99880.37
2022-11-22T07:02:06.418Z,99878.90
2022-11-22T07:04:35.246Z,99882.02
2022-11-22T07:07:03.150Z,99879.20
2022-11-22T07:09:31.242Z,99878.09
2022-11-22T07:11:59.445Z,99873.74
2022-11-22T07:14:27.289Z,99882.42
2022-11-22T07:16:55.191Z,99883.27
2022-11-22T07:19:23.164Z,99886.48
2022-11-22T07:21:51.041Z,99890.67
2022-11-22T07:24:19.209Z,99892.02
2022-11-22T07:26:47.172Z,99893.94
2022-11-22T07:29:15.238Z,99888.98
2022-11-22T07:31:45.767Z,99880.66
2022-11-22T07:34:13.612Z,99879.64
2022-11-22T07:36:41.509Z,99880.66
2022-11-22T07:39:09.409Z,99884.42
2022-11-22T07:41:37.242Z,99877.87
2022-11-22T07:44:05.316Z,99879.02
2022-11-22T07:46:33.527Z,99871.56
2022-11-22T07:49:02.854Z,99868.16
2022-11-22T07:51:30.849Z,99865.21
2022-11-22T07:53:59.032Z,99862.15
2022-11-22T07:56:26.974Z,99857.98
2022-11-22T07:58:55.096Z,99853.77
2022-11-22T08:01:23.829Z,99850.55
2022-11-22T08:03:51.889Z,99856.31
2022-11-22T08:06:19.749Z,99862.05
2022-11-22T08:08:47.806Z,99869.09
2022-11-22T08:11:15.721Z,99874.09
2022-11-22T08:13:44.793Z,99876.30
2022-11-22T08:16:15.579Z,99878.23
2022-11-22T08:18:48.703Z,99882.06
2022-11-22T08:21:18.735Z,99879.98
2022-11-22T08:23:48.541Z,99874.86
2022-11-22T08:26:18.182Z,99872.03
2022-11-22T08:28:46.084Z,99874.17
2022-11-22T08:31:16.770Z,99877.65
2022-11-22T08:33:44.785Z,99881.58
2022-11-22T08:36:12.827Z,99878.98
2022-11-22T08:38:41.656Z,99880.20
2022-11-22T08:41:10.244Z,99879.19
2022-11-22T08:43:38.505Z,99870.13
2022-11-22T08:46:06.784Z,99871.27
2022-11-22T08:48:36.829Z,99867.45
2022-11-22T08:51:07.381Z,99868.83
2022-11-22T08:53:38.121Z,99864.23
2022-11-22T08:56:09.836Z,99859.94
2022-11-22T08:58:38.408Z,99860.35
2022-11-22T09:01:08.991Z,99860.02
2022-11-22T09:03:38.086Z,99858.54
2022-11-22T09:09:22.079Z,99868.71
2022-11-22T09:11:45.464Z,99861.29
2022-11-22T09:14:13.438Z,99863.27
2022-11-22T09:16:41.267Z,99862.69
2022-11-22T09:19:09.918Z,99859.41
2022-11-22T09:21:37.854Z,99855.11
2022-11-22T09:24:06.053Z,99852.29
2022-11-22T09:26:33.929Z,99850.56
2022-11-22T09:29:01.783Z,99851.07
2022-11-22T09:31:31.828Z,99845.47
2022-11-22T09:33:59.880Z,99842.12
2022-11-22T09:36:27.872Z,99833.52
2022-11-22T09:38:56.616Z,99828.40
2022-11-22T09:41:36.934Z,99828.27
2022-11-22T09:44:18.681Z,99827.38
2022-11-22T09:47:11.999Z,99830.60
2022-11-22T09:49:51.940Z,99827.64
2022-11-22T09:52:33.165Z,99825.77
2022-11-22T09:55:06.562Z,99821.04
2022-11-22T09:57:40.822Z,99822.91
2022-11-22T10:00:18.827Z,99822.80
2022-11-22T10:03:00.962Z,99817.91
2022-11-22T10:05:35.004Z,99815.33
2022-11-22T10:08:17.813Z,99813.95
2022-11-22T10:10:45.894Z,99809.38
2022-11-22T10:13:25.470Z,99820.40
2022-11-22T10:16:05.589Z,99821.62
2022-11-22T10:19:04.991Z,99820.84
2022-11-22T10:21:32.913Z,99818.76
2022-11-22T10:24:00.787Z,99815.98
2022-11-22T10:26:34.464Z,99809.83
2022-11-22T10:29:33.898Z,99804.20
2022-11-22T10:32:17.115Z,99799.45
2022-11-22T10:35:03.779Z,99797.87
2022-11-22T10:38:02.975Z,99802.89
2022-11-22T10:41:04.401Z,99808.36
2022-11-22T10:44:18.581Z,99806.30
2022-11-22T10:47:14.392Z,99795.27
2022-11-22T10:50:01.732Z,99789.16
2022-11-22T10:52:32.617Z,99791.59
2022-11-22T10:55:22.391Z,99791.96
2022-11-22T10:58:15.117Z,99794.89
2022-11-22T11:00:55.711Z,99806.34
2022-11-22T11:03:40.736Z,99804.34
2022-11-22T11:06:26.256Z,99808.41
2022-11-22T11:12:01.839Z,99800.07
2022-11-22T11:14:35.212Z,99796.50
2022-11-22T11:17:06.159Z,99792.04
2022-11-22T11:19:40.645Z,99795.90
2022-11-22T11:22:08.512Z,99794.98
2022-11-22T11:24:39.965Z,99795.07
2022-11-22T11:27:11.120Z,99795.39
2022-11-22T11:29:46.696Z,99796.14
2022-11-22T11:32:19.818Z,99793.08
2022-11-22T11:34:58.365Z,99794.73
2022-11-22T11:37:33.227Z,99788.25
2022-11-22T11:40:01.272Z,99784.91
2022-11-22T11:42:35.030Z,99785.00
2022-11-22T11:45:19.969Z,99781.55
2022-11-22T11:47:47.837Z,99780.31
2022-11-22T11:50:24.956Z,99777.10
2022-11-22T11:53:15.517Z,99781.45
2022-11-22T11:55:43.444Z,99780.48
2022-11-22T11:58:24.761Z,99778.39
2022-11-22T12:00:52.819Z,99777.88
2022-11-22T12:03:22.971Z,99781.58
2022-11-22T12:06:11.698Z,99779.08
2022-11-22T12:08:41.814Z,99770.35
2022-11-22T12:11:15.010Z,99773.86
2022-11-22T12:14:12.778Z,99771.42
2022-11-22T12:16:41.190Z,99772.20
2022-11-22T12:19:29.200Z,99771.17
2022-11-22T12:22:48.105Z,99773.58
2022-11-22T12:25:36.097Z,99769.29
2022-11-22T12:28:28.949Z,99772.41
2022-11-22T12:31:13.556Z,99771.15
2022-11-22T12:33:47.538Z,99776.85
2022-11-22T12:36:21.669Z,99777.90
2022-11-22T12:38:52.914Z,99779.14
2022-11-22T12:41:26.196Z,99783.67
2022-11-22T12:44:03.383Z,99793.19
2022-11-22T12:46:39.903Z,99796.63
2022-11-22T12:49:35.349Z,99789.20
2022-11-22T12:52:23.494Z,99785.81
2022-11-22T12:54:57.876Z,99783.92
2022-11-22T12:57:54.981Z,99776.98
2022-11-22T13:00:26.417Z,99777.42
2022-11-22T13:03:20.113Z,99773.08
2022-11-22T13:05:54.217Z,99773.77
2022-11-22T13:09:00.301Z,99777.05
2022-11-22T13:11:37.896Z,99769.94
2022-11-22T13:14:13.193Z,99774.39
2022-11-22T13:16:44.900Z,99778.39
2022-11-22T13:19:16.372Z,99780.85
2022-11-22T13:22:05.909Z,99785.38
2022-11-22T13:24:58.484Z,99785.82
2022-11-22T13:27:32.769Z,99782.48
2022-11-22T13:30:02.363Z,99779.33
2022-11-22T13:32:33.204Z,99781.35
2022-11-22T13:35:14.003Z,99777.90
2022-11-22T13:37:48.920Z,99783.69
2022-11-22T13:40:16.874Z,99787.25
2022-11-22T13:42:44.944Z,99780.41
2022-11-22T13:45:24.507Z,99773.41
2022-11-22T13:47:53.011Z,99769.23
2022-11-22T13:50:36.335Z,99767.22
2022-11-22T13:53:19.583Z,99766.38
2022-11-22T13:55:47.802Z,99761.05
2022-11-22T13:58:25.048Z,99761.00
2022-11-22T14:00:55.102Z,99761.69
2022-11-22T14:03:28.075Z,99759.16
2022-11-22T14:05:58.217Z,99755.64
2022-11-22T14:08:41.489Z,99751.10
2022-11-22T14:11:12.282Z,99750.34
2022-11-22T14:13:52.334Z,99745.36
2022-11-22T14:16:40.127Z,99751.44
2022-11-22T14:19:27.086Z,99756.48
2022-11-22T14:22:32.001Z,99762.18
2022-11-22T14:25:21.694Z,99765.69
2022-11-22T14:28:29.409Z,99767.87
2022-11-22T14:30:58.496Z,99767.89
2022-11-22T14:33:31.216Z,99767.34
2022-11-22T14:36:08.277Z,99769.04
2022-11-22T14:38:41.179Z,99761.52
2022-11-22T14:41:27.797Z,99756.08
2022-11-22T14:44:13.574Z,99745.29
2022-11-22T14:46:54.789Z,99748.45
2022-11-22T14:49:33.218Z,99744.24
2022-11-22T14:52:02.541Z,99738.23
2022-11-22T14:54:43.109Z,99739.29
2022-11-22T14:57:17.257Z,99738.09
2022-11-22T15:00:00.195Z,99732.89
2022-11-22T15:02:55.958Z,99730.70
2022-11-22T15:09:10.826Z,99732.66
2022-11-22T15:09:23.394Z,99731.05
2022-11-22T15:11:45.069Z,99744.75
2022-11-22T15:14:43.599Z,99744.95
2022-11-22T15:57:49.057Z,99768.96
2022-11-22T16:00:23.470Z,99772.86
2022-11-22T16:03:06.733Z,99770.61
2022-11-22T16:06:03.625Z,99774.23
2022-11-22T16:08:31.054Z,99767.96
2022-11-22T16:11:03.456Z,99763.95
2022-11-22T16:13:36.332Z,99770.08
2022-11-22T16:16:28.950Z,99774.85
2022-11-22T16:19:26.179Z,99774.69
2022-11-22T16:22:01.506Z,99779.00
2022-11-22T16:24:31.930Z,99776.89
2022-11-22T16:27:12.542Z,99775.36
2022-11-22T16:29:43.064Z,99780.65
2022-11-22T16:32:16.524Z,99776.83
2022-11-22T16:34:47.016Z,99781.90
2022-11-22T16:37:36.402Z,99782.16
2022-11-22T16:40:07.612Z,99780.63
2022-11-22T16:42:40.837Z,99781.23
2022-11-22T16:45:20.715Z,99790.09
2022-11-22T16:48:03.781Z,99786.52
2022-11-22T16:50:42.185Z,99789.70
2022-11-22T16:53:15.928Z,99794.63
2022-11-22T16:55:44.537Z,99791.40
2022-11-22T16:58:18.913Z,99797.73
2022-11-22T17:00:48.998Z,99798.59
2022-11-22T17:03:25.440Z,99790.63
2022-11-22T17:05:54.646Z,99792.00
2022-11-22T17:08:23.618Z,99787.88
2022-11-22T17:10:52.981Z,99791.40
2022-11-22T17:13:27.207Z,99790.17
2022-11-22T17:15:56.873Z,99790.39
2022-11-22T17:18:26.080Z,99790.55
2022-11-22T17:20:55.441Z,99791.63
2022-11-22T17:23:32.189Z,99794.45
2022-11-22T17:26:01.124Z,99795.20
2022-11-22T17:28:30.456Z,99798.66
2022-11-22T17:31:03.306Z,99795.07
2022-11-22T17:33:31.847Z,99795.09
2022-11-22T17:36:02.071Z,99793.42
2022-11-22T17:38:30.603Z,99794.13
2022-11-22T17:41:00.444Z,99793.28
2022-11-22T17:43:28.923Z,99797.07
2022-11-22T17:46:00.078Z,99790.54
2022-11-22T17:48:28.473Z,99788.70
2022-11-22T17:50:57.223Z,99796.45
2022-11-22T17:53:28.608Z,99793.05
2022-11-22T17:56:09.853Z,99800.08
2022-11-22T17:58:40.572Z,99800.34
2022-11-22T18:01:12.298Z,99802.52
2022-11-22T18:03:41.430Z,99794.44
2022-11-22T18:06:11.440Z,99794.66
2022-11-22T18:08:46.994Z,99794.63
2022-11-22T18:11:16.425Z,99798.56
2022-11-22T18:13:44.729Z,99797.90
2022-11-22T18:16:15.822Z,99804.08
2022-11-22T18:19:00.573Z,99802.87
2022-11-22T18:21:30.545Z,99803.20
2022-11-22T18:23:59.758Z,99811.30
2022-11-22T18:26:39.286Z,99812.04
2022-11-22T18:29:41.131Z,99813.54
2022-11-22T18:31:59.897Z,99815.79
2022-11-22T18:34:29.498Z,99818.27
2022-11-22T18:37:03.039Z,99820.21
2022-11-22T18:39:36.206Z,99820.96
2022-11-22T18:42:07.099Z,99823.38
2022-11-22T18:44:35.215Z,99818.80
2022-11-22T18:47:03.648Z,99817.55
2022-11-22T18:49:32.377Z,99817.42
2022-11-22T18:52:00.913Z,99818.54
2022-11-22T18:54:29.320Z,99819.73
2022-11-22T18:56:57.737Z,99827.06
2022-11-22T18:59:25.737Z,99829.08
2022-11-22T19:01:53.777Z,99832.69
2022-11-22T19:04:22.464Z,99835.48
2022-11-22T19:06:51.824Z,99832.17
2022-11-22T19:09:20.144Z,99837.30
2022-11-22T19:11:48.550Z,99837.66
2022-11-22T19:14:16.595Z,99838.63
2022-11-22T19:16:44.667Z,99839.91
2022-11-22T19:19:13.209Z,99835.36
2022-11-22T19:21:42.041Z,99835.71
2022-11-22T19:24:10.116Z,99839.40
2022-11-22T19:26:38.437Z,99841.52
2022-11-22T19:29:07.183Z,99840.27
2022-11-22T19:31:36.730Z,99839.47
2022-11-22T19:34:04.969Z,99845.66
2022-11-22T19:36:34.365Z,99853.16
2022-11-22T19:39:05.515Z,99857.35
2022-11-22T19:41:33.817Z,99859.13
2022-11-22T19:44:02.989Z,99866.30
2022-11-22T19:46:31.059Z,99862.95
2022-11-22T19:49:01.202Z,99855.70
2022-11-22T19:51:31.057Z,99865.59
2022-11-22T19:54:04.177Z,99867.36
2022-11-22T19:56:37.557Z,99863.20
2022-11-22T19:59:07.659Z,99865.21
2022-11-22T20:01:35.830Z,99869.15
2022-11-22T20:04:06.109Z,99871.79
2022-11-22T20:06:36.365Z,99869.56
2022-11-22T20:09:12.841Z,99869.49
2022-11-22T20:11:42.401Z,99868.92
2022-11-22T20:14:10.777Z,99866.95
2022-11-22T20:16:41.839Z,99866.75
2022-11-22T20:19:12.552Z,99856.48
2022-11-22T20:21:41.500Z,99860.33
2022-11-22T20:24:10.141Z,99859.56
2022-11-22T20:26:38.411Z,99863.96
2022-11-22T20:29:08.430Z,99866.83
2022-11-22T20:31:38.138Z,99864.06
2022-11-22T20:34:06.932Z,99863.77
2022-11-22T20:36:35.528Z,99865.27
2022-11-22T20:39:09.689Z,99862.73
2022-11-22T20:41:39.545Z,99856.73
2022-11-22T20:44:11.407Z,99857.02
2022-11-22T20:46:40.593Z,99856.95
2022-11-22T20:49:08.673Z,99853.04
2022-11-22T20:51:39.611Z,99851.41
2022-11-22T20:54:08.506Z,99849.81
2022-11-22T20:56:37.704Z,99844.15
2022-11-22T20:59:05.781Z,99842.63
2022-11-22T21:01:33.855Z,99845.01
2022-11-22T21:04:02.228Z,99842.05
2022-11-22T21:06:32.963Z,99845.60
2022-11-22T21:09:01.059Z,99840.38
2022-11-22T21:11:31.123Z,99841.40
2022-11-22T21:13:59.479Z,99844.85
2022-11-22T21:16:29.455Z,99851.18
2022-11-22T21:19:01.520Z,99849.36
2022-11-22T21:21:30.748Z,99851.42
2022-11-22T21:24:00.443Z,99852.15
2022-11-22T21:26:29.727Z,99850.63
2022-11-22T21:28:59.523Z,99849.58
2022-11-22T21:31:28.335Z,99855.59
2022-11-22T21:33:56.662Z,99859.04
2022-11-22T21:36:25.290Z,99854.88
2022-11-22T21:38:53.260Z,99850.31
2022-11-22T21:44:11.084Z,99857.38
2022-11-22T21:46:40.185Z,99863.48
2022-11-22T21:49:08.094Z,99869.31
2022-11-22T21:51:35.981Z,99869.75
2022-11-22T21:54:04.533Z,99872.30
2022-11-22T21:56:32.858Z,99866.84
2022-11-22T21:59:01.196Z,99863.53
2022-11-22T22:01:29.340Z,99857.33
2022-11-22T22:03:57.349Z,99863.38
2022-11-22T22:06:27.889Z,99861.14
2022-11-22T22:08:55.805Z,99865.66
2022-11-22T22:11:24.007Z,99869.29
2022-11-22T22:13:54.677Z,99873.91
2022-11-22T22:16:24.090Z,99870.43
2022-11-22T22:18:53.575Z,99867.95
2022-11-22T22:21:21.927Z,99859.90
2022-11-22T22:23:49.980Z,99859.36
2022-11-22T22:26:18.179Z,99860.39
2022-11-22T22:28:46.758Z,99870.35
2022-11-22T22:31:23.905Z,99867.96
2022-11-22T22:33:54.987Z,99872.90
2022-11-22T22:36:24.603Z,99875.33
2022-11-22T22:38:54.202Z,99882.10
2022-11-22T22:41:22.482Z,99876.04
2022-11-22T22:43:50.376Z,99884.03
2022-11-22T22:46:20.681Z,99888.15
2022-11-22T22:48:49.834Z,99891.76
2022-11-22T22:51:31.995Z,99893.85
2022-11-22T22:54:01.561Z,99893.48
2022-11-22T22:56:31.212Z,99889.11
2022-11-22T22:59:01.230Z,99885.60
2022-11-22T23:01:31.139Z,99890.34
2022-11-22T23:04:01.141Z,99894.54
2022-11-22T23:06:35.920Z,99893.36
2022-11-22T23:09:09.567Z,99899.47
2022-11-22T23:11:56.997Z,99897.30
2022-11-22T23:14:27.631Z,99890.70
2022-11-22T23:16:57.943Z,99887.95
2022-11-22T23:19:27.871Z,99885.08
2022-11-22T23:21:55.855Z,99887.99
2022-11-22T23:24:24.300Z,99893.29
2022-11-22T23:26:52.404Z,99895.58
2022-11-22T23:29:20.442Z,99894.26
2022-11-22T23:31:48.334Z,99886.38
2022-11-22T23:34:16.407Z,99888.08
2022-11-22T23:36:44.469Z,99888.96
2022-11-22T23:39:12.380Z,99896.58
2022-11-22T23:41:40.522Z,99902.05
2022-11-22T23:44:08.745Z,99899.11
2022-11-22T23:46:36.973Z,99899.71
2022-11-22T23:49:06.318Z,99906.19
2022-11-22T23:51:35.346Z,99909.35
2022-11-22T23:54:07.167Z,99915.80
2022-11-22T23:56:36.493Z,99918.05
2022-11-22T23:59:05.818Z,99912.39
